TimeCST,TemperatureF,Dew PointF,Humidity,Sea Level PressureIn,VisibilityMPH,Wind Direction,Wind SpeedMPH,Gust SpeedMPH,PrecipitationIn,Events,Conditions,WindDirDegrees,DateUTC
12:15 AM,41.0,33.8,76,30.32,10.0,South,6.9,-,N/A,,Clear,180,2012-11-19 06:15:00
12:35 AM,41.0,33.8,76,30.31,10.0,South,6.9,-,N/A,,Clear,170,2012-11-19 06:35:00
12:55 AM,41.0,34.0,76,30.31,10.0,South,8.1,-,N/A,,Clear,170,2012-11-19 06:55:00
1:15 AM,40.3,34.0,78,30.31,10.0,South,5.8,-,N/A,,Clear,170,2012-11-19 07:15:00
1:35 AM,40.3,34.0,78,30.30,10.0,SSE,6.9,-,N/A,,Clear,160,2012-11-19 07:35:00
1:55 AM,40.1,33.8,78,30.29,10.0,SSE,8.1,-,N/A,,Clear,160,2012-11-19 07:55:00
2:15 AM,40.1,33.6,78,30.29,10.0,SSE,8.1,-,N/A,,Clear,160,2012-11-19 08:15:00
2:35 AM,39.6,33.8,80,30.29,10.0,SSE,6.9,-,N/A,,Clear,160,2012-11-19 08:35:00
2:55 AM,39.2,33.1,79,30.29,10.0,SSE,6.9,-,N/A,,Clear,160,2012-11-19 08:55:00
3:15 AM,38.3,33.1,81,30.29,10.0,South,6.9,-,N/A,,Clear,170,2012-11-19 09:15:00
3:35 AM,38.5,33.1,81,30.28,10.0,SSE,5.8,-,N/A,,Clear,150,2012-11-19 09:35:00
3:55 AM,39.2,33.1,79,30.28,10.0,SSE,6.9,-,N/A,,Clear,160,2012-11-19 09:55:00
4:15 AM,39.4,33.3,79,30.29,10.0,South,6.9,-,N/A,,Clear,170,2012-11-19 10:15:00
4:35 AM,39.6,33.1,78,30.29,10.0,South,6.9,-,N/A,,Clear,170,2012-11-19 10:35:00
4:55 AM,39.0,32.9,79,30.29,10.0,SSE,5.8,-,N/A,,Clear,160,2012-11-19 10:55:00
5:15 AM,38.5,32.5,79,30.29,10.0,SSE,4.6,-,N/A,,Clear,160,2012-11-19 11:15:00
5:35 AM,38.5,32.4,79,30.28,10.0,South,5.8,-,N/A,,Clear,170,2012-11-19 11:35:00
5:55 AM,36.9,32.0,83,30.28,10.0,SSE,5.8,-,N/A,,Clear,160,2012-11-19 11:55:00
6:15 AM,36.0,31.8,85,30.28,10.0,SSE,6.9,-,N/A,,Clear,160,2012-11-19 12:15:00
6:35 AM,35.8,32.0,86,30.28,10.0,SSE,8.1,-,N/A,,Clear,150,2012-11-19 12:35:00
6:55 AM,36.1,32.0,85,30.28,10.0,SSE,9.2,-,N/A,,Clear,150,2012-11-19 12:55:00
7:15 AM,37.0,32.5,84,30.28,10.0,SSE,8.1,-,N/A,,Clear,160,2012-11-19 13:15:00
7:35 AM,38.3,33.4,83,30.27,10.0,SSE,6.9,-,N/A,,Clear,150,2012-11-19 13:35:00
7:55 AM,39.4,33.8,80,30.28,10.0,SSE,8.1,-,N/A,,Clear,160,2012-11-19 13:55:00
8:15 AM,40.1,33.8,78,30.28,10.0,SSE,6.9,-,N/A,,Clear,160,2012-11-19 14:15:00
8:35 AM,41.2,34.0,76,30.27,10.0,SSE,9.2,-,N/A,,Clear,160,2012-11-19 14:35:00
8:55 AM,42.8,34.9,74,30.27,10.0,South,9.2,-,N/A,,Clear,170,2012-11-19 14:55:00
9:15 AM,44.2,35.2,71,30.26,10.0,South,9.2,-,N/A,,Clear,170,2012-11-19 15:15:00
9:35 AM,47.8,36.0,63,30.27,10.0,South,8.1,-,N/A,,Clear,180,2012-11-19 15:35:00
9:55 AM,49.5,35.6,59,30.27,10.0,South,6.9,-,N/A,,Clear,190,2012-11-19 15:55:00
10:15 AM,50.9,35.8,56,30.26,10.0,South,8.1,-,N/A,,Clear,180,2012-11-19 16:15:00
10:35 AM,52.0,35.2,53,30.25,10.0,South,8.1,-,N/A,,Clear,190,2012-11-19 16:35:00
10:55 AM,53.8,35.4,50,30.25,10.0,SSW,9.2,-,N/A,,Clear,200,2012-11-19 16:55:00
11:15 AM,54.0,35.2,49,30.23,10.0,SSW,10.4,-,N/A,,Clear,200,2012-11-19 17:15:00
11:35 AM,54.9,36.3,50,30.22,10.0,SSW,6.9,-,N/A,,Clear,210,2012-11-19 17:35:00
11:55 AM,57.0,36.3,46,30.22,10.0,SSW,11.5,-,N/A,,Clear,200,2012-11-19 17:55:00
12:15 PM,57.2,36.1,45,30.20,10.0,SSW,11.5,-,N/A,,Clear,200,2012-11-19 18:15:00
12:35 PM,57.2,36.7,46,30.19,10.0,South,10.4,-,N/A,,Clear,180,2012-11-19 18:35:00
12:55 PM,57.9,36.9,45,30.19,10.0,SSW,9.2,-,N/A,,Clear,200,2012-11-19 18:55:00
1:15 PM,58.1,36.7,45,30.19,10.0,SW,15.0,-,N/A,,Clear,220,2012-11-19 19:15:00
1:35 PM,57.6,36.0,44,30.18,10.0,SSW,13.8,-,N/A,,Clear,200,2012-11-19 19:35:00
1:55 PM,57.7,36.7,45,30.17,10.0,SSW,10.4,-,N/A,,Clear,210,2012-11-19 19:55:00
2:15 PM,57.4,36.9,46,30.17,10.0,South,11.5,-,N/A,,Scattered Clouds,190,2012-11-19 20:15:00
2:35 PM,57.4,36.7,46,30.17,10.0,SSW,12.7,-,N/A,,Mostly Cloudy,200,2012-11-19 20:35:00
2:55 PM,56.3,36.7,48,30.17,10.0,South,10.4,-,N/A,,Overcast,190,2012-11-19 20:55:00
3:15 PM,55.2,37.2,51,30.17,10.0,SSW,10.4,-,N/A,,Overcast,200,2012-11-19 21:15:00
3:35 PM,54.1,37.4,53,30.16,10.0,SSW,5.8,-,N/A,,Overcast,200,2012-11-19 21:35:00
3:55 PM,53.4,38.1,56,30.16,10.0,SSW,4.6,-,N/A,,Overcast,200,2012-11-19 21:55:00
4:15 PM,52.2,38.3,59,30.15,10.0,South,4.6,-,N/A,,Overcast,170,2012-11-19 22:15:00
4:35 PM,51.4,38.8,62,30.14,10.0,SSE,6.9,-,N/A,,Overcast,150,2012-11-19 22:35:00
4:55 PM,52.2,38.3,59,30.14,10.0,South,8.1,-,N/A,,Overcast,190,2012-11-19 22:55:00
5:15 PM,51.8,38.3,60,30.15,10.0,SSW,5.8,-,N/A,,Overcast,200,2012-11-19 23:15:00
5:35 PM,50.9,38.5,62,30.14,10.0,South,8.1,-,N/A,,Overcast,170,2012-11-19 23:35:00
5:55 PM,50.9,38.7,63,30.15,10.0,South,8.1,-,N/A,,Overcast,170,2012-11-19 23:55:00
6:15 PM,50.9,38.8,63,30.15,10.0,South,8.1,-,N/A,,Overcast,190,2012-11-20 00:15:00
6:35 PM,50.5,38.8,64,30.14,10.0,South,8.1,-,N/A,,Overcast,180,2012-11-20 00:35:00
6:55 PM,50.9,38.8,63,30.14,10.0,South,8.1,-,N/A,,Overcast,180,2012-11-20 00:55:00
7:15 PM,50.9,39.2,64,30.14,10.0,South,8.1,-,N/A,,Overcast,180,2012-11-20 01:15:00
7:35 PM,50.9,39.2,64,30.13,10.0,South,8.1,-,N/A,,Overcast,180,2012-11-20 01:35:00
7:55 PM,50.5,39.4,66,30.13,10.0,South,9.2,-,N/A,,Overcast,180,2012-11-20 01:55:00
8:15 PM,50.4,39.4,66,30.13,10.0,South,8.1,-,N/A,,Overcast,180,2012-11-20 02:15:00
8:35 PM,50.0,39.7,68,30.13,10.0,South,6.9,-,N/A,,Drizzle,180,2012-11-20 02:35:00
8:55 PM,49.6,40.5,71,30.13,10.0,South,6.9,-,N/A,,Overcast,180,2012-11-20 02:55:00
9:15 PM,50.0,40.1,69,30.12,10.0,South,8.1,-,N/A,,Overcast,180,2012-11-20 03:15:00
9:35 PM,50.0,40.1,69,30.12,10.0,South,6.9,-,N/A,,Overcast,190,2012-11-20 03:35:00
9:55 PM,50.4,40.1,68,30.12,10.0,SSW,6.9,-,N/A,,Overcast,200,2012-11-20 03:55:00
10:15 PM,50.2,40.3,69,30.12,10.0,SSW,6.9,-,N/A,,Overcast,200,2012-11-20 04:15:00
10:35 PM,49.6,40.6,71,30.12,10.0,South,6.9,-,N/A,,Overcast,180,2012-11-20 04:35:00
10:55 PM,50.2,40.5,69,30.11,10.0,South,8.1,-,N/A,,Overcast,190,2012-11-20 04:55:00
11:15 PM,50.0,41.0,71,30.11,10.0,SSW,5.8,-,N/A,,Overcast,200,2012-11-20 05:15:00
11:35 PM,50.0,41.0,71,30.11,10.0,South,4.6,-,N/A,,Overcast,180,2012-11-20 05:35:00
11:55 PM,49.6,41.4,73,30.11,10.0,South,5.8,-,N/A,,Overcast,180,2012-11-20 05:55:00